createdAt,value
2018-06-13T00:00:04.378Z,97.70
2018-06-13T00:02:32.967Z,98.50
2018-06-13T00:05:01.577Z,99.90
2018-06-13T00:07:30.102Z,99.40
2018-06-13T00:10:02.030Z,99.40
2018-06-13T00:12:30.541Z,99.90
2018-06-13T00:14:59.070Z,99.90
2018-06-13T00:17:28.302Z,99.90
2018-06-13T00:19:56.832Z,99.90
2018-06-13T00:22:25.657Z,99.90
2018-06-13T00:24:55.036Z,99.90
2018-06-13T00:27:24.267Z,99.90
2018-06-13T00:29:53.792Z,99.90
2018-06-13T00:32:22.391Z,99.90
2018-06-13T00:34:50.897Z,99.90
2018-06-13T00:37:19.413Z,99.90
2018-06-13T00:39:47.975Z,99.90
2018-06-13T00:42:16.545Z,99.90
2018-06-13T00:44:45.102Z,99.90
2018-06-13T00:47:14.669Z,99.90
2018-06-13T00:49:43.860Z,99.90
2018-06-13T00:52:12.393Z,99.90
2018-06-13T00:54:40.968Z,99.90
2018-06-13T00:57:09.552Z,99.90
2018-06-13T00:59:38.071Z,99.90
2018-06-13T01:02:07.929Z,99.90
2018-06-13T01:04:36.510Z,99.90
2018-06-13T01:07:05.144Z,99.90
2018-06-13T01:09:33.669Z,99.90
2018-06-13T01:12:02.224Z,99.90
2018-06-13T01:14:30.802Z,99.90
2018-06-13T01:16:59.416Z,99.90
2018-06-13T01:19:28.766Z,99.90
2018-06-13T01:21:57.285Z,99.90
2018-06-13T01:24:26.725Z,99.90
2018-06-13T01:26:55.330Z,99.90
2018-06-13T01:29:24.244Z,99.90
2018-06-13T01:31:52.775Z,99.90
2018-06-13T01:34:21.324Z,99.90
2018-06-13T01:36:49.886Z,99.90
2018-06-13T01:39:18.428Z,99.90
2018-06-13T01:41:47.002Z,99.90
2018-06-13T01:44:15.573Z,99.90
2018-06-13T01:46:45.041Z,99.90
2018-06-13T01:49:13.593Z,99.90
2018-06-13T01:51:42.449Z,99.90
2018-06-13T01:54:10.975Z,99.90
2018-06-13T01:56:39.684Z,99.90
2018-06-13T01:59:08.222Z,99.90
2018-06-13T02:01:37.436Z,99.90
2018-06-13T02:06:35.090Z,99.90
2018-06-13T02:09:03.762Z,99.90
2018-06-13T02:11:32.349Z,99.90
2018-06-13T02:14:02.437Z,99.90
2018-06-13T02:16:31.261Z,99.90
2018-06-13T02:19:01.673Z,99.90
2018-06-13T02:21:30.334Z,99.90
2018-06-13T02:23:58.891Z,99.90
2018-06-13T02:26:28.100Z,99.90
2018-06-13T02:28:56.680Z,99.90
2018-06-13T02:31:25.240Z,99.90
2018-06-13T02:33:54.153Z,99.90
2018-06-13T02:36:23.448Z,99.90
2018-06-13T02:38:52.011Z,99.90
2018-06-13T02:41:20.563Z,99.90
2018-06-13T02:43:49.394Z,99.90
2018-06-13T02:46:18.233Z,99.90
2018-06-13T02:48:46.758Z,99.90
2018-06-13T02:51:15.303Z,99.90
2018-06-13T02:53:44.723Z,99.90
2018-06-13T02:56:13.250Z,99.90
2018-06-13T02:58:42.767Z,99.90
2018-06-13T03:01:11.345Z,99.90
2018-06-13T03:03:39.857Z,99.90
2018-06-13T03:06:08.395Z,99.90
2018-06-13T03:08:36.975Z,99.90
2018-06-13T03:11:05.482Z,99.90
2018-06-13T03:13:34.268Z,99.90
2018-06-13T03:16:02.845Z,99.90
2018-06-13T03:18:31.389Z,99.90
2018-06-13T03:20:59.958Z,99.90
2018-06-13T03:23:28.515Z,99.90
2018-06-13T03:25:57.062Z,99.90
2018-06-13T03:28:25.615Z,99.90
2018-06-13T03:30:54.162Z,99.90
2018-06-13T03:33:22.699Z,99.90
2018-06-13T03:35:52.001Z,99.90
2018-06-13T03:40:48.718Z,99.90
2018-06-13T03:43:17.241Z,99.90
2018-06-13T03:45:46.034Z,99.90
2018-06-13T03:48:16.559Z,99.90
2018-06-13T03:50:45.098Z,99.90
2018-06-13T03:53:13.657Z,99.90
2018-06-13T03:55:42.197Z,99.90
2018-06-13T03:58:11.020Z,99.90
2018-06-13T04:00:39.564Z,99.90
2018-06-13T04:03:08.197Z,99.90
2018-06-13T04:05:36.740Z,99.90
2018-06-13T04:08:05.410Z,99.90
2018-06-13T04:10:34.627Z,99.90
2018-06-13T04:13:04.121Z,99.90
2018-06-13T04:15:32.643Z,99.90
2018-06-13T04:18:01.190Z,99.90
2018-06-13T04:20:29.736Z,99.90
2018-06-13T04:22:58.247Z,99.90
2018-06-13T04:25:26.770Z,99.90
2018-06-13T04:27:56.250Z,99.90
2018-06-13T04:30:24.752Z,99.90
2018-06-13T04:32:53.846Z,99.90
2018-06-13T04:35:22.405Z,99.90
2018-06-13T04:37:52.775Z,99.90
2018-06-13T04:40:21.331Z,99.90
2018-06-13T04:42:49.862Z,99.90
2018-06-13T04:45:19.382Z,99.90
2018-06-13T04:47:47.907Z,99.90
2018-06-13T04:50:16.493Z,99.90
2018-06-13T04:52:45.033Z,99.90
2018-06-13T04:55:13.600Z,99.90
2018-06-13T04:57:44.117Z,99.90
2018-06-13T05:00:12.677Z,99.90
2018-06-13T05:02:41.277Z,99.90
2018-06-13T05:05:09.817Z,99.90
2018-06-13T05:07:38.346Z,99.90
2018-06-13T05:10:06.874Z,99.90
2018-06-13T05:12:35.418Z,99.90
2018-06-13T05:15:03.973Z,99.90
2018-06-13T05:17:32.614Z,99.90
2018-06-13T05:20:02.143Z,99.90
2018-06-13T05:22:30.805Z,99.90
2018-06-13T05:25:00.020Z,99.90
2018-06-13T05:27:28.574Z,99.90
2018-06-13T05:29:57.090Z,99.90
2018-06-13T05:32:25.623Z,99.90
2018-06-13T05:34:54.274Z,99.90
2018-06-13T05:37:23.174Z,99.90
2018-06-13T05:39:51.726Z,99.90
2018-06-13T05:42:20.271Z,99.90
2018-06-13T05:44:49.557Z,99.90
2018-06-13T05:47:18.098Z,99.90
2018-06-13T05:49:46.634Z,99.90
2018-06-13T05:52:16.154Z,99.90
2018-06-13T05:57:13.158Z,99.90
2018-06-13T05:59:41.655Z,99.90
2018-06-13T06:02:10.293Z,99.90
2018-06-13T06:04:38.870Z,99.90
2018-06-13T06:07:07.453Z,99.90
2018-06-13T06:09:37.602Z,99.90
2018-06-13T06:12:06.854Z,99.90
2018-06-13T06:14:35.619Z,99.90
2018-06-13T06:17:04.202Z,99.90
2018-06-13T06:19:32.762Z,99.90
2018-06-13T06:22:01.262Z,99.30
2018-06-13T06:24:29.794Z,99.00
2018-06-13T06:26:58.309Z,98.20
2018-06-13T06:29:27.073Z,96.70
2018-06-13T06:31:55.919Z,97.40
2018-06-13T06:34:24.430Z,96.60
2018-06-13T06:36:52.972Z,96.80
2018-06-13T06:39:21.482Z,96.90
2018-06-13T06:41:50.994Z,96.80
2018-06-13T06:44:19.485Z,97.80
2018-06-13T06:46:47.994Z,97.00
2018-06-13T06:49:16.513Z,97.20
2018-06-13T06:51:45.158Z,97.70
2018-06-13T06:54:13.687Z,97.60
2018-06-13T06:56:42.481Z,97.30
2018-06-13T06:59:10.981Z,97.10
2018-06-13T07:01:39.474Z,97.50
2018-06-13T07:06:37.094Z,97.10
2018-06-13T07:09:08.783Z,99.10
2018-06-13T07:11:39.171Z,97.90
2018-06-13T07:14:07.754Z,98.80
2018-06-13T07:16:36.267Z,97.60
2018-06-13T07:19:04.850Z,97.30
2018-06-13T07:21:33.301Z,96.50
2018-06-13T07:24:02.502Z,95.70
2018-06-13T07:26:31.026Z,96.10
2018-06-13T07:28:59.515Z,96.90
2018-06-13T07:33:58.397Z,96.80
2018-06-13T07:36:26.903Z,96.00
2018-06-13T07:38:55.418Z,96.00
2018-06-13T07:41:24.665Z,96.70
2018-06-13T07:43:53.145Z,96.80
2018-06-13T07:46:21.654Z,94.60
2018-06-13T07:48:50.193Z,95.20
2018-06-13T07:51:18.721Z,94.60
2018-06-13T07:53:48.134Z,96.00
2018-06-13T07:56:17.249Z,96.10
2018-06-13T07:58:45.761Z,96.40
2018-06-13T08:01:16.470Z,97.10
2018-06-13T08:03:44.997Z,97.30
2018-06-13T08:06:13.890Z,97.50
2018-06-13T08:08:43.323Z,97.30
2018-06-13T08:11:11.857Z,97.90
2018-06-13T08:13:40.379Z,98.90
2018-06-13T08:16:08.877Z,97.90
2018-06-13T08:18:40.075Z,99.90
2018-06-13T08:21:08.699Z,96.80
2018-06-13T08:23:38.232Z,98.60
2018-06-13T08:26:09.473Z,97.10
2018-06-13T08:28:37.993Z,97.70
2018-06-13T08:31:06.730Z,94.80
2018-06-13T08:33:35.521Z,93.60
2018-06-13T08:36:04.064Z,92.20
2018-06-13T08:38:34.578Z,91.10
2018-06-13T08:41:03.198Z,92.40
2018-06-13T08:43:31.733Z,91.60
2018-06-13T08:46:00.220Z,93.20
2018-06-13T08:48:28.781Z,92.30
2018-06-13T08:50:57.305Z,93.00
2018-06-13T08:53:25.810Z,91.00
2018-06-13T08:55:54.342Z,91.40
2018-06-13T08:58:23.138Z,91.70
2018-06-13T09:00:52.931Z,90.30
2018-06-13T09:03:21.481Z,90.50
2018-06-13T09:05:50.349Z,90.70
2018-06-13T09:08:18.891Z,90.30
2018-06-13T09:10:49.486Z,89.90
2018-06-13T09:13:18.018Z,87.40
2018-06-13T09:15:47.421Z,88.40
2018-06-13T09:18:15.967Z,87.40
2018-06-13T09:20:44.894Z,82.80
2018-06-13T09:23:14.201Z,82.30
2018-06-13T09:25:42.729Z,83.30
2018-06-13T09:28:11.237Z,81.20
2018-06-13T09:30:40.114Z,78.50
2018-06-13T09:33:08.601Z,79.00
2018-06-13T09:35:37.105Z,79.80
2018-06-13T09:38:05.633Z,82.10
2018-06-13T09:40:34.128Z,79.70
2018-06-13T09:45:30.866Z,78.80
2018-06-13T09:47:59.425Z,81.30
2018-06-13T09:50:28.545Z,83.10
2018-06-13T09:52:57.065Z,79.80
2018-06-13T09:55:26.110Z,81.90
2018-06-13T09:57:54.628Z,82.90
2018-06-13T10:00:28.466Z,82.30
2018-06-13T10:02:56.982Z,79.50
2018-06-13T10:05:26.042Z,82.10
2018-06-13T10:07:55.365Z,84.00
2018-06-13T10:10:23.882Z,83.30
2018-06-13T10:12:52.417Z,79.60
2018-06-13T10:15:20.934Z,80.20
2018-06-13T10:17:49.449Z,77.50
2018-06-13T10:20:17.982Z,76.00
2018-06-13T10:22:46.494Z,75.60
2018-06-13T10:25:15.122Z,72.10
2018-06-13T10:27:43.635Z,71.90
2018-06-13T10:30:12.145Z,71.50
2018-06-13T10:32:40.667Z,70.60
2018-06-13T10:35:11.398Z,73.40
2018-06-13T10:37:40.005Z,71.10
2018-06-13T10:40:09.206Z,71.40
2018-06-13T10:42:39.151Z,71.20
2018-06-13T10:45:07.805Z,73.70
2018-06-13T10:47:36.397Z,75.80
2018-06-13T10:52:33.265Z,72.50
2018-06-13T10:55:01.765Z,70.90
2018-06-13T10:57:30.315Z,70.50
2018-06-13T10:59:59.389Z,70.30
2018-06-13T11:02:27.886Z,74.00
2018-06-13T11:04:56.683Z,70.80
2018-06-13T11:07:25.182Z,70.50
2018-06-13T11:09:53.751Z,71.10
2018-06-13T11:12:23.159Z,71.40
2018-06-13T11:14:51.671Z,70.50
2018-06-13T11:17:20.205Z,67.40
2018-06-13T11:19:48.975Z,66.60
2018-06-13T11:22:17.489Z,67.30
2018-06-13T11:24:46.017Z,68.10
2018-06-13T11:27:14.656Z,69.40
2018-06-13T11:29:43.155Z,69.90
2018-06-13T11:32:12.233Z,70.80
2018-06-13T11:34:40.741Z,71.60
2018-06-13T11:37:09.254Z,72.20
2018-06-13T11:39:38.298Z,71.00
2018-06-13T11:42:07.689Z,70.30
2018-06-13T11:44:36.193Z,67.90
2018-06-13T11:47:05.886Z,66.70
2018-06-13T11:49:35.578Z,68.50
2018-06-13T11:52:04.118Z,72.00
2018-06-13T11:54:33.145Z,67.50
2018-06-13T11:57:02.079Z,69.50
2018-06-13T11:59:30.602Z,72.20
2018-06-13T12:01:59.138Z,71.90
2018-06-13T12:04:27.630Z,73.90
2018-06-13T12:06:56.200Z,73.30
2018-06-13T12:09:24.729Z,74.30
2018-06-13T12:11:53.210Z,76.30
2018-06-13T12:14:21.710Z,77.10
2018-06-13T12:16:50.287Z,78.20
2018-06-13T12:19:19.154Z,73.90
2018-06-13T12:21:47.873Z,73.70
2018-06-13T12:24:16.467Z,73.60
2018-06-13T12:29:13.435Z,73.30
2018-06-13T12:31:41.965Z,72.30
2018-06-13T12:34:10.515Z,72.20
2018-06-13T12:36:39.045Z,75.10
2018-06-13T12:39:09.362Z,76.20
2018-06-13T12:41:39.245Z,77.50
2018-06-13T12:44:08.795Z,77.90
2018-06-13T12:46:37.846Z,78.80
2018-06-13T12:49:06.391Z,79.50
2018-06-13T12:51:34.913Z,80.50
2018-06-13T12:54:04.024Z,79.60
2018-06-13T12:56:33.457Z,80.20
2018-06-13T12:59:02.057Z,80.20
2018-06-13T13:01:31.245Z,80.20
2018-06-13T13:04:00.745Z,81.10
2018-06-13T13:06:29.237Z,79.80
2018-06-13T13:08:57.762Z,80.60
2018-06-13T13:11:26.251Z,80.40
2018-06-13T13:13:55.789Z,79.10
2018-06-13T13:16:24.967Z,81.20
2018-06-13T13:18:53.714Z,81.40
2018-06-13T13:21:22.357Z,81.90
2018-06-13T13:23:51.932Z,80.00
2018-06-13T13:26:21.133Z,78.80
2018-06-13T13:28:49.654Z,79.50
2018-06-13T13:31:18.178Z,79.30
2018-06-13T13:33:46.697Z,78.70
2018-06-13T13:36:15.241Z,78.50
2018-06-13T13:38:44.067Z,78.00
2018-06-13T13:41:14.472Z,79.90
2018-06-13T13:43:44.509Z,78.40
2018-06-13T13:46:13.241Z,78.90
2018-06-13T13:48:42.263Z,78.70
2018-06-13T13:51:10.837Z,79.50
2018-06-13T13:53:39.990Z,80.80
2018-06-13T13:56:08.545Z,79.00
2018-06-13T13:58:37.059Z,76.60
2018-06-13T14:01:05.578Z,76.20
2018-06-13T14:03:34.101Z,76.40
2018-06-13T14:06:02.763Z,77.80
2018-06-13T14:08:31.296Z,76.50
2018-06-13T14:11:00.666Z,75.80
2018-06-13T14:13:29.166Z,75.20
2018-06-13T14:15:59.375Z,74.60
2018-06-13T14:18:27.909Z,74.40
2018-06-13T14:20:56.411Z,76.30
2018-06-13T14:23:24.955Z,76.90
2018-06-13T14:25:54.761Z,77.40
2018-06-13T14:28:23.275Z,78.00
2018-06-13T14:33:20.017Z,78.90
2018-06-13T14:35:48.836Z,77.40
2018-06-13T14:38:18.042Z,81.30
2018-06-13T14:40:48.017Z,79.10
2018-06-13T14:43:16.526Z,79.40
2018-06-13T14:45:45.226Z,80.30
2018-06-13T14:48:14.034Z,80.10
2018-06-13T14:50:42.617Z,81.30
2018-06-13T14:53:11.818Z,80.00
2018-06-13T14:55:45.889Z,80.20
2018-06-13T14:58:14.410Z,80.00
2018-06-13T15:00:44.122Z,80.70
2018-06-13T15:03:13.285Z,81.10
2018-06-13T15:05:42.682Z,80.00
2018-06-13T15:08:11.884Z,78.50
2018-06-13T15:10:40.385Z,78.40
2018-06-13T15:13:08.935Z,78.20
2018-06-13T15:15:37.437Z,77.50
2018-06-13T15:18:06.021Z,78.30
2018-06-13T15:20:35.085Z,77.20
2018-06-13T15:23:04.405Z,76.80
2018-06-13T15:25:32.966Z,75.90
2018-06-13T15:28:01.517Z,76.90
2018-06-13T15:30:30.033Z,76.50
2018-06-13T15:32:58.646Z,75.30
2018-06-13T15:35:27.168Z,75.20
2018-06-13T15:37:55.668Z,73.00
2018-06-13T15:40:24.234Z,75.00
2018-06-13T15:42:52.725Z,75.50
2018-06-13T15:45:21.309Z,75.90
2018-06-13T15:47:49.885Z,74.40
2018-06-13T15:50:18.589Z,75.60
2018-06-13T15:52:48.138Z,73.50
2018-06-13T15:55:18.883Z,74.40
2018-06-13T15:57:48.419Z,75.20
2018-06-13T16:00:19.175Z,75.10
2018-06-13T16:02:47.838Z,75.10
2018-06-13T16:05:18.899Z,76.00
2018-06-13T16:07:47.446Z,75.70
2018-06-13T16:10:17.294Z,76.80
2018-06-13T16:12:45.959Z,77.20
2018-06-13T16:15:14.722Z,76.40
2018-06-13T16:17:43.380Z,75.50
2018-06-13T16:20:12.787Z,76.40
2018-06-13T16:22:41.689Z,77.30
2018-06-13T16:25:13.264Z,74.40
2018-06-13T16:27:41.809Z,75.70
2018-06-13T16:30:10.370Z,72.90
2018-06-13T16:32:39.826Z,73.20
2018-06-13T16:35:09.314Z,74.80
2018-06-13T16:37:38.776Z,73.10
2018-06-13T16:40:08.298Z,71.90
2018-06-13T16:42:37.884Z,73.20
2018-06-13T16:45:06.642Z,73.40
2018-06-13T16:47:36.198Z,74.80
2018-06-13T16:50:14.846Z,75.70
2018-06-13T16:53:58.410Z,77.30
2018-06-13T16:56:27.781Z,78.60
2018-06-13T16:58:56.295Z,77.80
2018-06-13T17:01:24.821Z,78.80
2018-06-13T17:03:54.234Z,78.00
2018-06-13T17:06:22.757Z,78.20
2018-06-13T17:08:51.260Z,78.50
2018-06-13T17:11:20.091Z,78.60
2018-06-13T17:13:48.700Z,80.20
2018-06-13T17:16:17.230Z,80.70
2018-06-13T17:18:45.741Z,81.70
2018-06-13T17:21:14.238Z,81.60
2018-06-13T17:23:42.777Z,83.10
2018-06-13T17:26:11.313Z,80.50
2018-06-13T17:28:39.862Z,80.60
2018-06-13T17:31:08.385Z,81.00
2018-06-13T17:33:37.480Z,81.30
2018-06-13T17:36:06.042Z,81.90
2018-06-13T17:38:34.562Z,82.90
2018-06-13T17:41:03.130Z,81.80
2018-06-13T17:43:31.653Z,82.30
2018-06-13T17:46:00.154Z,82.40
2018-06-13T17:48:28.717Z,83.60
2018-06-13T17:50:57.272Z,84.10
2018-06-13T17:53:25.930Z,84.20
2018-06-13T17:55:54.491Z,84.60
2018-06-13T17:58:23.030Z,83.20
2018-06-13T18:00:51.566Z,83.00
2018-06-13T18:03:20.710Z,84.40
2018-06-13T18:05:49.327Z,84.40
2018-06-13T18:08:17.874Z,83.60
2018-06-13T18:10:46.396Z,83.50
2018-06-13T18:13:15.837Z,83.70
2018-06-13T18:15:44.567Z,83.50
2018-06-13T18:18:13.113Z,84.10
2018-06-13T18:20:41.615Z,84.60
2018-06-13T18:23:10.146Z,85.20
2018-06-13T18:25:38.681Z,85.50
2018-06-13T18:28:07.193Z,84.50
2018-06-13T18:30:35.755Z,85.50
2018-06-13T18:33:04.291Z,87.60
2018-06-13T18:35:32.810Z,87.30
2018-06-13T18:38:01.383Z,87.70
2018-06-13T18:40:29.981Z,87.50
2018-06-13T18:42:58.546Z,90.10
2018-06-13T18:45:27.131Z,89.10
2018-06-13T18:47:55.671Z,88.50
2018-06-13T18:50:24.217Z,90.50
2018-06-13T18:52:52.880Z,91.00
2018-06-13T18:55:21.411Z,93.90
2018-06-13T18:57:50.011Z,94.80
2018-06-13T19:00:18.559Z,95.40
2018-06-13T19:02:47.819Z,96.60
2018-06-13T19:05:18.384Z,97.30
2018-06-13T19:07:50.818Z,98.30
2018-06-13T19:10:19.387Z,97.70
2018-06-13T19:12:48.053Z,96.40
2018-06-13T19:15:17.585Z,97.60
2018-06-13T19:17:46.269Z,99.00
2018-06-13T19:20:14.914Z,97.60
2018-06-13T19:22:43.527Z,98.00
2018-06-13T19:25:12.204Z,99.00
2018-06-13T19:27:40.838Z,98.70
2018-06-13T19:30:09.531Z,98.40
2018-06-13T19:32:38.135Z,99.00
2018-06-13T19:35:06.802Z,99.80
2018-06-13T19:37:35.450Z,99.90
2018-06-13T19:40:04.101Z,99.90
2018-06-13T19:42:32.643Z,99.90
2018-06-13T19:45:01.366Z,99.90
2018-06-13T19:48:36.760Z,99.90
2018-06-13T19:51:05.474Z,99.90
2018-06-13T19:53:39.565Z,99.90
2018-06-13T19:56:10.463Z,99.90
2018-06-13T19:58:39.706Z,99.90
2018-06-13T20:01:08.565Z,99.90
2018-06-13T20:03:43.630Z,99.90
2018-06-13T20:06:12.186Z,99.90
2018-06-13T20:08:40.777Z,99.90
2018-06-13T20:11:09.407Z,99.90
2018-06-13T20:13:43.380Z,99.90
2018-06-13T20:16:17.283Z,99.90
2018-06-13T20:18:50.998Z,99.90
2018-06-13T20:21:19.598Z,99.90
2018-06-13T20:23:48.494Z,99.90
2018-06-13T20:26:22.541Z,99.90
2018-06-13T20:28:56.340Z,99.90
2018-06-13T20:31:31.953Z,99.90
2018-06-13T20:34:00.834Z,99.90
2018-06-13T20:36:29.746Z,99.90
2018-06-13T20:38:58.378Z,99.90
2018-06-13T20:41:27.254Z,99.90
2018-06-13T20:43:55.823Z,99.90
2018-06-13T20:46:24.985Z,99.90
2018-06-13T20:48:54.892Z,99.90
2018-06-13T20:51:23.486Z,99.90
2018-06-13T20:53:52.067Z,99.90
2018-06-13T20:56:20.571Z,99.90
2018-06-13T20:58:49.202Z,99.90
2018-06-13T21:01:18.031Z,99.90
2018-06-13T21:03:47.122Z,99.90
2018-06-13T21:06:15.674Z,99.90
2018-06-13T21:08:44.681Z,99.90
2018-06-13T21:11:15.497Z,99.90
2018-06-13T21:13:44.486Z,99.90
2018-06-13T21:16:15.278Z,99.90
2018-06-13T21:18:43.858Z,99.90
2018-06-13T21:21:12.455Z,99.90
2018-06-13T21:23:41.206Z,99.90
2018-06-13T21:26:09.762Z,99.90
2018-06-13T21:28:38.413Z,99.90
2018-06-13T21:31:07.849Z,99.90
2018-06-13T21:33:37.356Z,99.90
2018-06-13T21:36:07.011Z,99.90
2018-06-13T21:38:35.616Z,99.90
2018-06-13T21:41:04.225Z,99.90
2018-06-13T21:43:33.114Z,99.90
2018-06-13T21:46:01.711Z,99.90
2018-06-13T21:48:30.887Z,99.90
2018-06-13T21:50:59.455Z,99.90
2018-06-13T21:53:29.038Z,99.90
2018-06-13T21:58:27.138Z,99.90
2018-06-13T22:00:55.805Z,99.90
2018-06-13T22:03:24.405Z,99.90
2018-06-13T22:05:52.954Z,99.90
2018-06-13T22:08:21.514Z,99.90
2018-06-13T22:10:50.132Z,99.90
2018-06-13T22:13:18.695Z,99.90
2018-06-13T22:15:47.982Z,99.90
2018-06-13T22:18:16.566Z,99.90
2018-06-13T22:20:45.144Z,99.90
2018-06-13T22:23:13.675Z,99.90
2018-06-13T22:25:43.054Z,99.90
2018-06-13T22:28:11.632Z,99.90
2018-06-13T22:30:40.161Z,99.90
2018-06-13T22:33:09.050Z,99.90
2018-06-13T22:35:37.586Z,99.90
2018-06-13T22:38:09.232Z,99.90
2018-06-13T22:40:37.873Z,99.90
2018-06-13T22:43:07.041Z,99.90
2018-06-13T22:45:36.634Z,99.90
2018-06-13T22:48:06.252Z,99.90
2018-06-13T22:50:35.244Z,99.90
2018-06-13T22:53:03.802Z,99.90
2018-06-13T22:55:32.863Z,99.90
2018-06-13T22:58:01.406Z,99.90
2018-06-13T23:00:32.939Z,99.90
2018-06-13T23:03:03.354Z,99.90
2018-06-13T23:05:32.081Z,99.90
2018-06-13T23:08:02.211Z,99.90
2018-06-13T23:10:30.754Z,99.90
2018-06-13T23:12:59.355Z,99.90
2018-06-13T23:15:27.986Z,99.90
2018-06-13T23:17:57.652Z,99.90
2018-06-13T23:20:26.246Z,99.90
2018-06-13T23:22:55.879Z,99.90
2018-06-13T23:25:24.538Z,99.90
2018-06-13T23:30:22.358Z,99.90
2018-06-13T23:32:51.669Z,99.90
2018-06-13T23:35:20.272Z,99.90
2018-06-13T23:37:48.833Z,99.90
2018-06-13T23:40:18.288Z,99.90
2018-06-13T23:42:46.850Z,99.90
2018-06-13T23:45:16.641Z,99.90
2018-06-13T23:47:45.380Z,99.90
2018-06-13T23:50:13.958Z,99.90
2018-06-13T23:52:42.533Z,99.90
2018-06-13T23:55:11.385Z,99.90
2018-06-13T23:57:40.022Z,99.90
